sensor_id;sensor_type;location;lat;lon;timestamp;temperature;humidity
14705;DHT22;7442;50.840;3.396;2022-10-31T00:02:08;23.10;63.80
14705;DHT22;7442;50.840;3.396;2022-10-31T00:04:38;23.10;63.70
14705;DHT22;7442;50.840;3.396;2022-10-31T00:07:08;23.10;63.90
14705;DHT22;7442;50.840;3.396;2022-10-31T00:09:38;23.10;63.70
14705;DHT22;7442;50.840;3.396;2022-10-31T00:12:08;23.20;63.50
14705;DHT22;7442;50.840;3.396;2022-10-31T00:14:38;23.20;63.30
14705;DHT22;7442;50.840;3.396;2022-10-31T00:17:08;23.10;63.40
14705;DHT22;7442;50.840;3.396;2022-10-31T00:19:38;23.20;63.30
14705;DHT22;7442;50.840;3.396;2022-10-31T00:22:08;23.20;63.20
14705;DHT22;7442;50.840;3.396;2022-10-31T00:24:38;23.20;63.20
14705;DHT22;7442;50.840;3.396;2022-10-31T00:27:08;23.20;63.00
14705;DHT22;7442;50.840;3.396;2022-10-31T00:29:38;23.10;63.00
14705;DHT22;7442;50.840;3.396;2022-10-31T00:32:08;23.20;62.80
14705;DHT22;7442;50.840;3.396;2022-10-31T00:34:38;23.20;62.90
14705;DHT22;7442;50.840;3.396;2022-10-31T00:37:08;23.10;62.90
14705;DHT22;7442;50.840;3.396;2022-10-31T00:39:38;23.20;62.80
14705;DHT22;7442;50.840;3.396;2022-10-31T00:42:08;23.20;62.80
14705;DHT22;7442;50.840;3.396;2022-10-31T00:44:38;23.10;62.60
14705;DHT22;7442;50.840;3.396;2022-10-31T00:47:08;23.20;62.60
14705;DHT22;7442;50.840;3.396;2022-10-31T00:49:38;23.10;62.70
14705;DHT22;7442;50.840;3.396;2022-10-31T00:52:08;23.10;62.60
14705;DHT22;7442;50.840;3.396;2022-10-31T00:54:39;23.00;62.70
14705;DHT22;7442;50.840;3.396;2022-10-31T00:57:09;22.90;62.80
14705;DHT22;7442;50.840;3.396;2022-10-31T00:59:39;22.90;62.80
14705;DHT22;7442;50.840;3.396;2022-10-31T01:02:09;22.90;63.00
14705;DHT22;7442;50.840;3.396;2022-10-31T01:04:39;22.90;63.10
14705;DHT22;7442;50.840;3.396;2022-10-31T01:07:09;22.90;63.00
14705;DHT22;7442;50.840;3.396;2022-10-31T01:09:40;22.90;63.00
14705;DHT22;7442;50.840;3.396;2022-10-31T01:12:10;22.90;62.80
14705;DHT22;7442;50.840;3.396;2022-10-31T01:14:46;22.90;62.70
14705;DHT22;7442;50.840;3.396;2022-10-31T01:17:16;23.00;62.60
14705;DHT22;7442;50.840;3.396;2022-10-31T01:19:46;23.00;62.50
14705;DHT22;7442;50.840;3.396;2022-10-31T01:22:16;23.00;62.40
14705;DHT22;7442;50.840;3.396;2022-10-31T01:24:46;23.00;62.40
14705;DHT22;7442;50.840;3.396;2022-10-31T01:27:16;23.00;62.30
14705;DHT22;7442;50.840;3.396;2022-10-31T01:29:46;23.00;62.40
14705;DHT22;7442;50.840;3.396;2022-10-31T01:32:17;22.90;62.40
14705;DHT22;7442;50.840;3.396;2022-10-31T01:34:47;22.90;62.40
14705;DHT22;7442;50.840;3.396;2022-10-31T01:37:17;22.90;62.30
14705;DHT22;7442;50.840;3.396;2022-10-31T01:39:48;22.90;62.30
14705;DHT22;7442;50.840;3.396;2022-10-31T01:42:21;22.90;62.40
14705;DHT22;7442;50.840;3.396;2022-10-31T01:45:01;22.90;62.30
14705;DHT22;7442;50.840;3.396;2022-10-31T01:47:40;22.90;62.40
14705;DHT22;7442;50.840;3.396;2022-10-31T01:50:19;22.90;62.40
14705;DHT22;7442;50.840;3.396;2022-10-31T01:52:47;22.80;62.30
14705;DHT22;7442;50.840;3.396;2022-10-31T01:55:32;22.80;62.20
14705;DHT22;7442;50.840;3.396;2022-10-31T01:58:09;22.80;62.30
14705;DHT22;7442;50.840;3.396;2022-10-31T02:00:41;22.80;62.40
14705;DHT22;7442;50.840;3.396;2022-10-31T02:03:12;22.80;62.10
14705;DHT22;7442;50.840;3.396;2022-10-31T02:05:43;22.80;62.30
14705;DHT22;7442;50.840;3.396;2022-10-31T02:10:49;22.80;62.30
14705;DHT22;7442;50.840;3.396;2022-10-31T02:13:20;22.80;62.10
14705;DHT22;7442;50.840;3.396;2022-10-31T02:15:53;22.80;62.00
14705;DHT22;7442;50.840;3.396;2022-10-31T02:18:26;22.80;62.00
14705;DHT22;7442;50.840;3.396;2022-10-31T02:29:36;22.80;62.20
14705;DHT22;7442;50.840;3.396;2022-10-31T02:32:09;22.70;62.10
14705;DHT22;7442;50.840;3.396;2022-10-31T02:37:43;22.80;61.90
14705;DHT22;7442;50.840;3.396;2022-10-31T02:40:31;22.80;61.70
14705;DHT22;7442;50.840;3.396;2022-10-31T02:43:14;22.80;61.60
14705;DHT22;7442;50.840;3.396;2022-10-31T02:45:58;22.80;61.50
14705;DHT22;7442;50.840;3.396;2022-10-31T02:48:31;22.80;61.50
14705;DHT22;7442;50.840;3.396;2022-10-31T02:51:04;22.70;61.70
14705;DHT22;7442;50.840;3.396;2022-10-31T02:53:35;22.70;61.70
14705;DHT22;7442;50.840;3.396;2022-10-31T02:56:17;22.70;61.90
14705;DHT22;7442;50.840;3.396;2022-10-31T02:58:49;22.70;61.80
14705;DHT22;7442;50.840;3.396;2022-10-31T03:01:44;22.70;61.90
14705;DHT22;7442;50.840;3.396;2022-10-31T03:07:53;22.60;61.80
14705;DHT22;7442;50.840;3.396;2022-10-31T03:15:51;22.50;62.10
14705;DHT22;7442;50.840;3.396;2022-10-31T03:18:32;22.40;62.30
14705;DHT22;7442;50.840;3.396;2022-10-31T03:21:13;22.40;62.30
14705;DHT22;7442;50.840;3.396;2022-10-31T03:23:45;22.40;62.30
14705;DHT22;7442;50.840;3.396;2022-10-31T03:26:16;22.40;62.30
14705;DHT22;7442;50.840;3.396;2022-10-31T03:29:04;22.40;62.30
14705;DHT22;7442;50.840;3.396;2022-10-31T03:31:35;22.40;62.30
14705;DHT22;7442;50.840;3.396;2022-10-31T03:34:06;22.50;62.20
14705;DHT22;7442;50.840;3.396;2022-10-31T03:36:38;22.50;62.00
14705;DHT22;7442;50.840;3.396;2022-10-31T03:39:11;22.50;62.00
14705;DHT22;7442;50.840;3.396;2022-10-31T03:41:45;22.50;61.90
14705;DHT22;7442;50.840;3.396;2022-10-31T03:44:17;22.50;62.00
14705;DHT22;7442;50.840;3.396;2022-10-31T03:46:48;22.50;61.90
14705;DHT22;7442;50.840;3.396;2022-10-31T03:49:18;22.50;62.00
14705;DHT22;7442;50.840;3.396;2022-10-31T03:51:55;22.50;61.20
14705;DHT22;7442;50.840;3.396;2022-10-31T03:57:06;22.50;61.70
14705;DHT22;7442;50.840;3.396;2022-10-31T03:59:42;22.50;61.70
14705;DHT22;7442;50.840;3.396;2022-10-31T04:02:15;22.50;61.50
14705;DHT22;7442;50.840;3.396;2022-10-31T04:04:47;22.50;61.40
14705;DHT22;7442;50.840;3.396;2022-10-31T04:07:19;22.40;61.50
14705;DHT22;7442;50.840;3.396;2022-10-31T04:09:52;22.40;61.70
14705;DHT22;7442;50.840;3.396;2022-10-31T04:12:24;22.30;61.90
14705;DHT22;7442;50.840;3.396;2022-10-31T04:14:56;22.40;61.80
14705;DHT22;7442;50.840;3.396;2022-10-31T04:17:29;22.30;62.20
14705;DHT22;7442;50.840;3.396;2022-10-31T04:20:00;22.30;62.10
14705;DHT22;7442;50.840;3.396;2022-10-31T04:22:31;22.20;62.10
14705;DHT22;7442;50.840;3.396;2022-10-31T04:25:01;22.20;62.20
14705;DHT22;7442;50.840;3.396;2022-10-31T04:27:31;22.20;62.20
14705;DHT22;7442;50.840;3.396;2022-10-31T04:30:01;22.20;62.10
14705;DHT22;7442;50.840;3.396;2022-10-31T04:32:31;22.30;62.00
14705;DHT22;7442;50.840;3.396;2022-10-31T04:35:01;22.30;61.80
14705;DHT22;7442;50.840;3.396;2022-10-31T04:37:31;22.30;61.80
14705;DHT22;7442;50.840;3.396;2022-10-31T04:40:01;22.20;61.70
14705;DHT22;7442;50.840;3.396;2022-10-31T04:42:31;22.20;61.60
14705;DHT22;7442;50.840;3.396;2022-10-31T04:45:01;22.20;61.90
14705;DHT22;7442;50.840;3.396;2022-10-31T04:47:32;22.20;61.90
14705;DHT22;7442;50.840;3.396;2022-10-31T04:50:02;22.20;62.00
14705;DHT22;7442;50.840;3.396;2022-10-31T04:52:38;22.20;61.90
14705;DHT22;7442;50.840;3.396;2022-10-31T04:55:05;22.10;62.00
14705;DHT22;7442;50.840;3.396;2022-10-31T04:57:45;22.10;62.00
14705;DHT22;7442;50.840;3.396;2022-10-31T05:00:17;22.10;61.70
14705;DHT22;7442;50.840;3.396;2022-10-31T05:02:53;22.20;61.60
14705;DHT22;7442;50.840;3.396;2022-10-31T05:05:26;22.20;61.70
14705;DHT22;7442;50.840;3.396;2022-10-31T05:07:56;22.10;61.60
14705;DHT22;7442;50.840;3.396;2022-10-31T05:10:28;22.20;61.70
14705;DHT22;7442;50.840;3.396;2022-10-31T05:13:01;22.10;61.50
14705;DHT22;7442;50.840;3.396;2022-10-31T05:15:31;22.10;61.50
14705;DHT22;7442;50.840;3.396;2022-10-31T05:18:02;22.10;61.60
14705;DHT22;7442;50.840;3.396;2022-10-31T05:20:32;22.10;61.70
14705;DHT22;7442;50.840;3.396;2022-10-31T05:23:03;22.10;61.70
14705;DHT22;7442;50.840;3.396;2022-10-31T05:25:33;22.00;61.60
14705;DHT22;7442;50.840;3.396;2022-10-31T05:28:03;22.10;61.70
14705;DHT22;7442;50.840;3.396;2022-10-31T05:30:33;22.10;61.60
14705;DHT22;7442;50.840;3.396;2022-10-31T05:33:03;22.00;61.50
14705;DHT22;7442;50.840;3.396;2022-10-31T05:35:34;22.10;61.50
14705;DHT22;7442;50.840;3.396;2022-10-31T05:38:04;22.00;61.40
14705;DHT22;7442;50.840;3.396;2022-10-31T05:40:34;22.10;61.40
14705;DHT22;7442;50.840;3.396;2022-10-31T05:43:04;22.10;61.50
14705;DHT22;7442;50.840;3.396;2022-10-31T05:45:34;22.10;61.50
14705;DHT22;7442;50.840;3.396;2022-10-31T05:48:04;22.10;61.50
14705;DHT22;7442;50.840;3.396;2022-10-31T05:50:34;22.10;61.30
14705;DHT22;7442;50.840;3.396;2022-10-31T05:53:05;22.10;61.20
14705;DHT22;7442;50.840;3.396;2022-10-31T05:55:35;22.10;61.20
14705;DHT22;7442;50.840;3.396;2022-10-31T05:58:05;22.10;61.10
14705;DHT22;7442;50.840;3.396;2022-10-31T06:00:37;22.10;61.10
14705;DHT22;7442;50.840;3.396;2022-10-31T06:03:09;22.10;61.30
14705;DHT22;7442;50.840;3.396;2022-10-31T06:05:39;22.00;61.10
14705;DHT22;7442;50.840;3.396;2022-10-31T06:08:09;22.00;61.20
14705;DHT22;7442;50.840;3.396;2022-10-31T06:10:39;22.10;61.00
14705;DHT22;7442;50.840;3.396;2022-10-31T06:13:09;22.10;61.00
14705;DHT22;7442;50.840;3.396;2022-10-31T06:15:40;22.00;61.00
14705;DHT22;7442;50.840;3.396;2022-10-31T06:18:10;22.00;61.00
14705;DHT22;7442;50.840;3.396;2022-10-31T06:20:40;22.00;61.10
14705;DHT22;7442;50.840;3.396;2022-10-31T06:23:10;22.00;61.20
14705;DHT22;7442;50.840;3.396;2022-10-31T06:25:40;22.00;61.20
14705;DHT22;7442;50.840;3.396;2022-10-31T06:28:10;22.00;61.10
14705;DHT22;7442;50.840;3.396;2022-10-31T06:30:40;22.00;61.20
14705;DHT22;7442;50.840;3.396;2022-10-31T06:33:11;22.00;61.10
14705;DHT22;7442;50.840;3.396;2022-10-31T06:35:45;22.00;61.20
14705;DHT22;7442;50.840;3.396;2022-10-31T06:38:15;22.00;61.30
14705;DHT22;7442;50.840;3.396;2022-10-31T06:40:45;22.00;61.30
14705;DHT22;7442;50.840;3.396;2022-10-31T06:43:16;21.90;61.30
14705;DHT22;7442;50.840;3.396;2022-10-31T06:45:46;21.90;61.40
14705;DHT22;7442;50.840;3.396;2022-10-31T06:48:16;22.00;61.20
14705;DHT22;7442;50.840;3.396;2022-10-31T06:50:46;22.00;61.20
14705;DHT22;7442;50.840;3.396;2022-10-31T06:53:16;22.00;61.10
14705;DHT22;7442;50.840;3.396;2022-10-31T06:55:46;21.90;61.20
14705;DHT22;7442;50.840;3.396;2022-10-31T06:58:16;22.00;61.10
14705;DHT22;7442;50.840;3.396;2022-10-31T07:00:46;21.90;61.20
14705;DHT22;7442;50.840;3.396;2022-10-31T07:03:16;21.90;61.30
14705;DHT22;7442;50.840;3.396;2022-10-31T07:05:47;21.90;61.30
14705;DHT22;7442;50.840;3.396;2022-10-31T07:08:17;21.90;61.40
14705;DHT22;7442;50.840;3.396;2022-10-31T07:10:51;21.80;61.70
14705;DHT22;7442;50.840;3.396;2022-10-31T07:13:22;21.90;61.40
14705;DHT22;7442;50.840;3.396;2022-10-31T07:15:59;21.90;61.40
14705;DHT22;7442;50.840;3.396;2022-10-31T07:18:27;22.00;61.10
14705;DHT22;7442;50.840;3.396;2022-10-31T07:20:57;22.00;61.60
14705;DHT22;7442;50.840;3.396;2022-10-31T07:23:27;22.00;61.30
14705;DHT22;7442;50.840;3.396;2022-10-31T07:25:58;22.00;61.00
14705;DHT22;7442;50.840;3.396;2022-10-31T07:28:28;22.00;61.30
14705;DHT22;7442;50.840;3.396;2022-10-31T07:30:58;22.00;61.10
14705;DHT22;7442;50.840;3.396;2022-10-31T07:33:28;22.00;61.10
14705;DHT22;7442;50.840;3.396;2022-10-31T07:35:59;22.00;61.10
14705;DHT22;7442;50.840;3.396;2022-10-31T07:38:29;22.00;61.50
14705;DHT22;7442;50.840;3.396;2022-10-31T07:40:59;22.00;61.30
14705;DHT22;7442;50.840;3.396;2022-10-31T07:43:29;22.10;61.40
14705;DHT22;7442;50.840;3.396;2022-10-31T07:45:59;22.30;61.20
14705;DHT22;7442;50.840;3.396;2022-10-31T07:48:29;22.30;60.70
14705;DHT22;7442;50.840;3.396;2022-10-31T07:50:59;22.40;61.00
14705;DHT22;7442;50.840;3.396;2022-10-31T07:53:31;22.60;60.30
14705;DHT22;7442;50.840;3.396;2022-10-31T07:56:01;22.70;59.70
14705;DHT22;7442;50.840;3.396;2022-10-31T07:58:31;22.80;59.50
14705;DHT22;7442;50.840;3.396;2022-10-31T08:01:01;22.80;59.80
14705;DHT22;7442;50.840;3.396;2022-10-31T08:03:31;22.80;59.40
14705;DHT22;7442;50.840;3.396;2022-10-31T08:06:01;22.90;57.30
14705;DHT22;7442;50.840;3.396;2022-10-31T08:08:31;22.80;57.90
14705;DHT22;7442;50.840;3.396;2022-10-31T08:11:01;22.70;59.20
14705;DHT22;7442;50.840;3.396;2022-10-31T08:13:32;22.50;59.70
14705;DHT22;7442;50.840;3.396;2022-10-31T08:16:02;22.40;58.90
14705;DHT22;7442;50.840;3.396;2022-10-31T08:18:33;22.50;59.00
14705;DHT22;7442;50.840;3.396;2022-10-31T08:21:03;22.60;58.90
14705;DHT22;7442;50.840;3.396;2022-10-31T08:23:33;22.70;59.10
14705;DHT22;7442;50.840;3.396;2022-10-31T08:26:03;22.70;59.00
14705;DHT22;7442;50.840;3.396;2022-10-31T08:28:35;22.70;59.00
14705;DHT22;7442;50.840;3.396;2022-10-31T08:31:05;22.70;59.00
14705;DHT22;7442;50.840;3.396;2022-10-31T08:33:35;22.80;58.80
14705;DHT22;7442;50.840;3.396;2022-10-31T08:36:05;22.80;58.60
14705;DHT22;7442;50.840;3.396;2022-10-31T08:38:35;22.70;58.80
14705;DHT22;7442;50.840;3.396;2022-10-31T08:41:06;22.70;59.00
14705;DHT22;7442;50.840;3.396;2022-10-31T08:43:36;22.70;59.00
14705;DHT22;7442;50.840;3.396;2022-10-31T08:46:06;22.60;58.80
14705;DHT22;7442;50.840;3.396;2022-10-31T08:48:36;22.70;58.80
14705;DHT22;7442;50.840;3.396;2022-10-31T08:51:08;22.70;58.70
14705;DHT22;7442;50.840;3.396;2022-10-31T08:53:38;22.70;58.80
14705;DHT22;7442;50.840;3.396;2022-10-31T08:56:11;22.70;58.80
14705;DHT22;7442;50.840;3.396;2022-10-31T08:58:43;22.70;58.80
14705;DHT22;7442;50.840;3.396;2022-10-31T09:01:15;22.70;59.50
14705;DHT22;7442;50.840;3.396;2022-10-31T09:03:45;22.70;58.60
14705;DHT22;7442;50.840;3.396;2022-10-31T09:06:15;22.60;58.50
14705;DHT22;7442;50.840;3.396;2022-10-31T09:08:46;22.50;58.70
14705;DHT22;7442;50.840;3.396;2022-10-31T09:11:16;22.40;59.00
14705;DHT22;7442;50.840;3.396;2022-10-31T09:13:46;22.50;59.10
14705;DHT22;7442;50.840;3.396;2022-10-31T09:16:16;22.60;58.90
14705;DHT22;7442;50.840;3.396;2022-10-31T09:18:46;22.60;58.70
14705;DHT22;7442;50.840;3.396;2022-10-31T09:21:16;22.70;58.70
14705;DHT22;7442;50.840;3.396;2022-10-31T09:23:46;22.60;58.70
14705;DHT22;7442;50.840;3.396;2022-10-31T09:26:16;22.60;58.80
14705;DHT22;7442;50.840;3.396;2022-10-31T09:28:46;22.70;58.80
14705;DHT22;7442;50.840;3.396;2022-10-31T09:31:16;22.70;58.80
14705;DHT22;7442;50.840;3.396;2022-10-31T09:33:46;22.70;58.80
14705;DHT22;7442;50.840;3.396;2022-10-31T09:36:16;22.70;58.70
14705;DHT22;7442;50.840;3.396;2022-10-31T09:38:46;22.70;58.60
14705;DHT22;7442;50.840;3.396;2022-10-31T09:41:19;22.70;58.60
14705;DHT22;7442;50.840;3.396;2022-10-31T09:52:24;22.80;58.60
14705;DHT22;7442;50.840;3.396;2022-10-31T09:54:58;22.80;58.70
14705;DHT22;7442;50.840;3.396;2022-10-31T09:57:31;22.80;58.70
14705;DHT22;7442;50.840;3.396;2022-10-31T10:00:04;22.80;58.80
14705;DHT22;7442;50.840;3.396;2022-10-31T10:08:26;22.90;58.50
14705;DHT22;7442;50.840;3.396;2022-10-31T10:17:04;22.90;58.90
14705;DHT22;7442;50.840;3.396;2022-10-31T10:22:37;23.20;58.40
14705;DHT22;7442;50.840;3.396;2022-10-31T10:25:21;23.20;58.30
14705;DHT22;7442;50.840;3.396;2022-10-31T10:28:22;23.10;58.60
14705;DHT22;7442;50.840;3.396;2022-10-31T10:30:59;23.20;58.50
14705;DHT22;7442;50.840;3.396;2022-10-31T10:33:31;23.20;58.40
14705;DHT22;7442;50.840;3.396;2022-10-31T10:36:18;23.30;58.50
14705;DHT22;7442;50.840;3.396;2022-10-31T10:38:59;23.30;58.40
14705;DHT22;7442;50.840;3.396;2022-10-31T10:41:33;23.40;59.10
14705;DHT22;7442;50.840;3.396;2022-10-31T10:44:07;23.40;59.60
14705;DHT22;7442;50.840;3.396;2022-10-31T10:46:55;23.40;60.00
14705;DHT22;7442;50.840;3.396;2022-10-31T10:49:46;23.40;60.50
14705;DHT22;7442;50.840;3.396;2022-10-31T10:52:29;23.40;60.70
14705;DHT22;7442;50.840;3.396;2022-10-31T10:58:04;23.40;61.00
14705;DHT22;7442;50.840;3.396;2022-10-31T11:00:47;23.30;60.80
14705;DHT22;7442;50.840;3.396;2022-10-31T11:03:19;23.40;61.30
14705;DHT22;7442;50.840;3.396;2022-10-31T11:05:51;23.40;61.50
14705;DHT22;7442;50.840;3.396;2022-10-31T11:08:32;23.40;61.50
14705;DHT22;7442;50.840;3.396;2022-10-31T11:13:42;23.40;60.90
14705;DHT22;7442;50.840;3.396;2022-10-31T11:16:15;23.50;61.50
14705;DHT22;7442;50.840;3.396;2022-10-31T11:18:47;23.50;61.60
14705;DHT22;7442;50.840;3.396;2022-10-31T11:21:26;23.40;61.50
14705;DHT22;7442;50.840;3.396;2022-10-31T11:24:13;23.40;62.30
14705;DHT22;7442;50.840;3.396;2022-10-31T11:26:34;23.40;62.60
14705;DHT22;7442;50.840;3.396;2022-10-31T11:29:14;23.50;62.70
14705;DHT22;7442;50.840;3.396;2022-10-31T11:31:46;23.50;62.70
14705;DHT22;7442;50.840;3.396;2022-10-31T11:34:30;23.40;62.00
14705;DHT22;7442;50.840;3.396;2022-10-31T11:37:11;23.40;61.90
14705;DHT22;7442;50.840;3.396;2022-10-31T11:39:48;23.30;62.60
14705;DHT22;7442;50.840;3.396;2022-10-31T11:42:21;23.40;62.60
14705;DHT22;7442;50.840;3.396;2022-10-31T11:44:53;23.30;62.60
14705;DHT22;7442;50.840;3.396;2022-10-31T11:47:26;23.30;62.40
14705;DHT22;7442;50.840;3.396;2022-10-31T11:50:01;23.40;62.70
14705;DHT22;7442;50.840;3.396;2022-10-31T11:52:32;23.40;62.20
14705;DHT22;7442;50.840;3.396;2022-10-31T11:55:15;23.60;61.90
14705;DHT22;7442;50.840;3.396;2022-10-31T11:57:52;23.60;62.80
14705;DHT22;7442;50.840;3.396;2022-10-31T12:00:32;23.80;61.70
14705;DHT22;7442;50.840;3.396;2022-10-31T12:06:00;23.90;59.70
14705;DHT22;7442;50.840;3.396;2022-10-31T12:08:34;23.90;60.30
14705;DHT22;7442;50.840;3.396;2022-10-31T12:11:35;23.90;61.40
14705;DHT22;7442;50.840;3.396;2022-10-31T12:16:57;24.00;61.30
14705;DHT22;7442;50.840;3.396;2022-10-31T12:25:33;24.00;62.10
14705;DHT22;7442;50.840;3.396;2022-10-31T12:28:18;23.90;61.80
14705;DHT22;7442;50.840;3.396;2022-10-31T12:36:43;24.10;61.20
14705;DHT22;7442;50.840;3.396;2022-10-31T12:39:25;24.10;61.20
14705;DHT22;7442;50.840;3.396;2022-10-31T12:47:40;24.00;61.60
14705;DHT22;7442;50.840;3.396;2022-10-31T12:53:05;23.90;61.90
14705;DHT22;7442;50.840;3.396;2022-10-31T12:55:50;23.90;62.00
14705;DHT22;7442;50.840;3.396;2022-10-31T13:01:29;23.90;61.70
14705;DHT22;7442;50.840;3.396;2022-10-31T13:04:16;23.90;61.70
14705;DHT22;7442;50.840;3.396;2022-10-31T13:06:48;23.90;61.50
14705;DHT22;7442;50.840;3.396;2022-10-31T13:09:27;23.90;61.60
14705;DHT22;7442;50.840;3.396;2022-10-31T13:11:55;23.80;61.60
14705;DHT22;7442;50.840;3.396;2022-10-31T13:14:36;23.80;61.90
14705;DHT22;7442;50.840;3.396;2022-10-31T13:17:21;23.70;61.70
14705;DHT22;7442;50.840;3.396;2022-10-31T13:19:41;23.70;61.70
14705;DHT22;7442;50.840;3.396;2022-10-31T13:22:20;23.80;61.40
14705;DHT22;7442;50.840;3.396;2022-10-31T13:24:59;23.90;60.80
14705;DHT22;7442;50.840;3.396;2022-10-31T13:27:46;23.90;60.00
14705;DHT22;7442;50.840;3.396;2022-10-31T13:30:22;23.90;59.60
14705;DHT22;7442;50.840;3.396;2022-10-31T13:41:18;24.10;60.10
14705;DHT22;7442;50.840;3.396;2022-10-31T13:49:03;24.20;59.80
14705;DHT22;7442;50.840;3.396;2022-10-31T13:51:34;24.20;59.60
14705;DHT22;7442;50.840;3.396;2022-10-31T13:54:22;24.20;60.10
14705;DHT22;7442;50.840;3.396;2022-10-31T13:56:53;24.20;59.90
14705;DHT22;7442;50.840;3.396;2022-10-31T13:59:24;24.40;60.00
14705;DHT22;7442;50.840;3.396;2022-10-31T14:02:10;24.50;59.70
14705;DHT22;7442;50.840;3.396;2022-10-31T14:04:50;24.60;59.30
14705;DHT22;7442;50.840;3.396;2022-10-31T14:07:19;24.60;59.10
14705;DHT22;7442;50.840;3.396;2022-10-31T14:10:19;24.70;58.90
14705;DHT22;7442;50.840;3.396;2022-10-31T14:15:27;24.50;59.30
14705;DHT22;7442;50.840;3.396;2022-10-31T14:17:55;24.50;59.50
14705;DHT22;7442;50.840;3.396;2022-10-31T14:20:32;24.50;59.50
14705;DHT22;7442;50.840;3.396;2022-10-31T14:34:40;24.00;60.60
14705;DHT22;7442;50.840;3.396;2022-10-31T14:37:23;24.00;60.90
14705;DHT22;7442;50.840;3.396;2022-10-31T14:40:02;24.00;61.10
14705;DHT22;7442;50.840;3.396;2022-10-31T14:45:41;23.90;61.20
14705;DHT22;7442;50.840;3.396;2022-10-31T14:48:34;23.90;61.30
14705;DHT22;7442;50.840;3.396;2022-10-31T14:51:08;23.90;61.30
14705;DHT22;7442;50.840;3.396;2022-10-31T14:53:41;23.90;61.70
14705;DHT22;7442;50.840;3.396;2022-10-31T14:56:10;23.80;61.90
14705;DHT22;7442;50.840;3.396;2022-10-31T14:58:45;23.80;62.10
14705;DHT22;7442;50.840;3.396;2022-10-31T15:01:34;23.80;62.10
14705;DHT22;7442;50.840;3.396;2022-10-31T15:04:26;23.80;61.90
14705;DHT22;7442;50.840;3.396;2022-10-31T15:07:10;23.80;62.20
14705;DHT22;7442;50.840;3.396;2022-10-31T15:09:39;23.80;62.00
14705;DHT22;7442;50.840;3.396;2022-10-31T15:12:29;23.80;62.30
14705;DHT22;7442;50.840;3.396;2022-10-31T15:15:15;23.80;62.60
14705;DHT22;7442;50.840;3.396;2022-10-31T15:17:58;23.80;62.50
14705;DHT22;7442;50.840;3.396;2022-10-31T15:20:27;23.80;62.30
14705;DHT22;7442;50.840;3.396;2022-10-31T15:22:58;23.80;62.40
14705;DHT22;7442;50.840;3.396;2022-10-31T15:25:33;23.80;62.20
14705;DHT22;7442;50.840;3.396;2022-10-31T15:28:12;23.80;62.50
14705;DHT22;7442;50.840;3.396;2022-10-31T15:30:35;23.70;62.60
14705;DHT22;7442;50.840;3.396;2022-10-31T15:33:20;23.70;62.50
14705;DHT22;7442;50.840;3.396;2022-10-31T15:35:56;23.80;62.60
14705;DHT22;7442;50.840;3.396;2022-10-31T15:38:28;23.80;62.40
14705;DHT22;7442;50.840;3.396;2022-10-31T15:41:02;23.80;62.70
14705;DHT22;7442;50.840;3.396;2022-10-31T15:43:36;23.80;62.70
14705;DHT22;7442;50.840;3.396;2022-10-31T15:46:09;23.80;62.60
14705;DHT22;7442;50.840;3.396;2022-10-31T15:48:43;23.80;62.10
14705;DHT22;7442;50.840;3.396;2022-10-31T15:51:11;23.80;62.00
14705;DHT22;7442;50.840;3.396;2022-10-31T15:53:47;23.70;62.40
14705;DHT22;7442;50.840;3.396;2022-10-31T15:56:29;23.60;62.80
14705;DHT22;7442;50.840;3.396;2022-10-31T15:58:58;23.60;62.80
14705;DHT22;7442;50.840;3.396;2022-10-31T16:01:30;23.60;62.80
14705;DHT22;7442;50.840;3.396;2022-10-31T16:04:04;23.60;62.90
14705;DHT22;7442;50.840;3.396;2022-10-31T16:06:34;23.60;63.10
14705;DHT22;7442;50.840;3.396;2022-10-31T16:09:20;23.60;63.00
14705;DHT22;7442;50.840;3.396;2022-10-31T16:11:50;23.70;63.00
14705;DHT22;7442;50.840;3.396;2022-10-31T16:14:23;23.70;62.80
14705;DHT22;7442;50.840;3.396;2022-10-31T16:16:56;23.70;62.80
14705;DHT22;7442;50.840;3.396;2022-10-31T16:19:32;23.70;62.60
14705;DHT22;7442;50.840;3.396;2022-10-31T16:22:08;23.70;62.50
14705;DHT22;7442;50.840;3.396;2022-10-31T16:24:57;23.70;62.40
14705;DHT22;7442;50.840;3.396;2022-10-31T16:27:29;23.70;62.50
14705;DHT22;7442;50.840;3.396;2022-10-31T16:30:01;23.60;63.50
14705;DHT22;7442;50.840;3.396;2022-10-31T16:32:52;23.50;62.80
14705;DHT22;7442;50.840;3.396;2022-10-31T16:35:37;23.50;62.90
14705;DHT22;7442;50.840;3.396;2022-10-31T16:38:08;23.40;63.00
14705;DHT22;7442;50.840;3.396;2022-10-31T16:40:38;23.40;63.20
14705;DHT22;7442;50.840;3.396;2022-10-31T16:43:11;23.30;63.40
14705;DHT22;7442;50.840;3.396;2022-10-31T16:45:51;23.30;63.40
14705;DHT22;7442;50.840;3.396;2022-10-31T16:48:22;23.30;63.30
14705;DHT22;7442;50.840;3.396;2022-10-31T16:50:53;23.40;63.30
14705;DHT22;7442;50.840;3.396;2022-10-31T16:53:23;23.30;63.00
14705;DHT22;7442;50.840;3.396;2022-10-31T16:56:01;23.30;63.00
14705;DHT22;7442;50.840;3.396;2022-10-31T16:58:33;23.40;62.90
14705;DHT22;7442;50.840;3.396;2022-10-31T17:01:06;23.40;62.90
14705;DHT22;7442;50.840;3.396;2022-10-31T17:03:36;23.40;63.00
14705;DHT22;7442;50.840;3.396;2022-10-31T17:06:13;23.40;62.90
14705;DHT22;7442;50.840;3.396;2022-10-31T17:08:40;23.50;62.50
14705;DHT22;7442;50.840;3.396;2022-10-31T17:11:17;23.50;62.00
14705;DHT22;7442;50.840;3.396;2022-10-31T17:13:54;23.50;61.90
14705;DHT22;7442;50.840;3.396;2022-10-31T17:16:25;23.40;62.00
14705;DHT22;7442;50.840;3.396;2022-10-31T17:18:55;23.40;63.00
14705;DHT22;7442;50.840;3.396;2022-10-31T17:21:25;23.30;62.90
14705;DHT22;7442;50.840;3.396;2022-10-31T17:23:56;23.30;63.40
14705;DHT22;7442;50.840;3.396;2022-10-31T17:26:25;23.40;63.50
14705;DHT22;7442;50.840;3.396;2022-10-31T17:28:56;23.40;63.40
14705;DHT22;7442;50.840;3.396;2022-10-31T17:31:30;23.40;63.50
14705;DHT22;7442;50.840;3.396;2022-10-31T17:34:00;23.40;63.20
14705;DHT22;7442;50.840;3.396;2022-10-31T17:36:32;23.40;62.90
14705;DHT22;7442;50.840;3.396;2022-10-31T17:39:03;23.40;63.50
14705;DHT22;7442;50.840;3.396;2022-10-31T17:41:35;23.30;63.40
14705;DHT22;7442;50.840;3.396;2022-10-31T17:44:05;23.40;63.40
14705;DHT22;7442;50.840;3.396;2022-10-31T17:46:35;23.40;63.30
14705;DHT22;7442;50.840;3.396;2022-10-31T17:49:05;23.30;63.50
14705;DHT22;7442;50.840;3.396;2022-10-31T17:51:37;23.30;63.40
14705;DHT22;7442;50.840;3.396;2022-10-31T17:54:07;23.30;63.70
14705;DHT22;7442;50.840;3.396;2022-10-31T17:56:38;23.20;63.60
14705;DHT22;7442;50.840;3.396;2022-10-31T17:59:08;23.20;63.60
14705;DHT22;7442;50.840;3.396;2022-10-31T18:01:38;23.30;63.70
14705;DHT22;7442;50.840;3.396;2022-10-31T18:04:08;23.30;63.80
14705;DHT22;7442;50.840;3.396;2022-10-31T18:06:38;23.30;63.90
14705;DHT22;7442;50.840;3.396;2022-10-31T18:09:08;23.30;63.70
14705;DHT22;7442;50.840;3.396;2022-10-31T18:11:38;23.30;63.60
14705;DHT22;7442;50.840;3.396;2022-10-31T18:14:09;23.30;63.50
14705;DHT22;7442;50.840;3.396;2022-10-31T18:16:39;23.30;63.60
14705;DHT22;7442;50.840;3.396;2022-10-31T18:19:13;23.20;63.60